createdAt,value
2019-05-19T00:00:10.218Z,67.70
2019-05-19T00:01:10.193Z,68.10
2019-05-19T00:02:10.179Z,67.80
2019-05-19T00:03:10.190Z,67.80
2019-05-19T00:04:10.165Z,68.30
2019-05-19T00:05:10.151Z,68.30
2019-05-19T00:06:10.137Z,67.40
2019-05-19T00:07:10.123Z,67.50
2019-05-19T00:08:10.115Z,67.90
2019-05-19T00:09:10.116Z,68.41
2019-05-19T00:10:10.091Z,68.30
2019-05-19T00:11:10.080Z,68.30
2019-05-19T00:12:10.070Z,68.51
2019-05-19T00:13:10.058Z,68.24
2019-05-19T00:14:10.058Z,68.81
2019-05-19T00:15:10.053Z,68.91
2019-05-19T00:16:10.028Z,68.81
2019-05-19T00:17:10.014Z,69.04
2019-05-19T00:18:10.004Z,69.72
2019-05-19T00:19:10.005Z,69.55
2019-05-19T00:20:09.982Z,69.95
2019-05-19T00:21:09.969Z,70.06
2019-05-19T00:22:09.962Z,70.15
2019-05-19T00:23:09.948Z,70.46
2019-05-19T00:24:09.963Z,70.56
2019-05-19T00:25:09.926Z,69.95
2019-05-19T00:26:09.917Z,70.46
2019-05-19T00:27:09.905Z,70.66
2019-05-19T00:28:09.905Z,70.26
2019-05-19T00:29:09.884Z,69.75
2019-05-19T00:30:09.889Z,70.36
2019-05-19T00:31:09.881Z,70.36
2019-05-19T00:32:09.874Z,70.36
2019-05-19T00:33:09.838Z,70.46
2019-05-19T00:34:09.831Z,70.89
2019-05-19T00:35:09.825Z,70.49
2019-05-19T00:36:09.808Z,70.59
2019-05-19T00:37:09.796Z,70.79
2019-05-19T00:38:09.784Z,70.89
2019-05-19T00:39:09.775Z,71.00
2019-05-19T00:40:09.770Z,71.40
2019-05-19T00:41:09.754Z,71.00
2019-05-19T00:42:09.742Z,71.00
2019-05-19T00:43:09.728Z,70.59
2019-05-19T00:44:09.717Z,70.73
2019-05-19T00:45:09.718Z,70.83
2019-05-19T00:46:09.695Z,70.93
2019-05-19T00:47:09.693Z,71.13
2019-05-19T00:48:09.678Z,71.23
2019-05-19T00:49:09.666Z,71.33
2019-05-19T00:50:09.662Z,71.33
2019-05-19T00:51:09.653Z,71.73
2019-05-19T00:52:09.628Z,71.94
2019-05-19T00:53:09.644Z,71.53
2019-05-19T00:54:09.610Z,71.94
2019-05-19T00:55:09.615Z,71.53
2019-05-19T00:56:09.583Z,71.64
2019-05-19T00:57:09.576Z,71.44
2019-05-19T00:58:09.570Z,71.33
2019-05-19T00:59:09.555Z,71.33
2019-05-19T01:00:09.552Z,71.44
2019-05-19T01:01:09.531Z,71.33
2019-05-19T01:02:09.524Z,71.33
2019-05-19T01:03:09.508Z,71.64
2019-05-19T01:04:09.507Z,71.53
2019-05-19T01:05:09.498Z,70.73
2019-05-19T01:06:09.487Z,71.03
2019-05-19T01:07:09.466Z,70.93
2019-05-19T01:08:09.456Z,70.73
2019-05-19T01:09:09.442Z,70.42
2019-05-19T01:10:09.448Z,70.96
2019-05-19T01:11:09.419Z,71.03
2019-05-19T01:12:09.412Z,71.26
2019-05-19T01:13:09.399Z,70.86
2019-05-19T01:14:09.393Z,70.93
2019-05-19T01:15:09.385Z,70.83
2019-05-19T01:16:09.367Z,70.96
2019-05-19T01:17:09.355Z,69.82
2019-05-19T01:18:09.343Z,69.71
2019-05-19T01:19:09.348Z,71.84
2019-05-19T01:20:09.377Z,72.14
2019-05-19T01:21:09.314Z,72.04
2019-05-19T01:22:09.299Z,71.23
2019-05-19T01:23:09.286Z,71.44
2019-05-19T01:24:09.275Z,71.13
2019-05-19T01:25:09.276Z,71.53
2019-05-19T01:26:09.254Z,71.53
2019-05-19T01:27:09.247Z,71.44
2019-05-19T01:28:09.292Z,71.26
2019-05-19T01:29:09.230Z,71.26
2019-05-19T01:30:09.242Z,71.37
2019-05-19T01:31:09.205Z,70.83
2019-05-19T01:32:09.190Z,70.53
2019-05-19T01:33:09.179Z,70.12
2019-05-19T01:34:09.166Z,70.66
2019-05-19T01:35:09.170Z,70.02
2019-05-19T01:36:09.158Z,70.56
2019-05-19T01:37:09.133Z,70.53
2019-05-19T01:38:09.122Z,70.73
2019-05-19T01:39:09.110Z,70.76
2019-05-19T01:40:09.100Z,70.96
2019-05-19T01:41:09.100Z,70.76
2019-05-19T01:42:09.082Z,70.96
2019-05-19T01:43:09.070Z,70.15
2019-05-19T01:44:09.059Z,70.46
2019-05-19T01:45:09.046Z,70.36
2019-05-19T01:46:09.047Z,70.56
2019-05-19T01:47:09.024Z,70.46
2019-05-19T01:48:09.015Z,70.32
2019-05-19T01:49:09.003Z,70.46
2019-05-19T01:50:17.391Z,70.96
2019-05-19T01:51:09.988Z,70.96
2019-05-19T01:52:08.969Z,70.15
2019-05-19T01:53:08.959Z,70.42
2019-05-19T01:54:08.950Z,70.46
2019-05-19T01:55:08.937Z,69.75
2019-05-19T01:56:08.942Z,70.36
2019-05-19T01:57:08.915Z,70.62
2019-05-19T01:58:08.904Z,69.11
2019-05-19T01:59:08.891Z,69.82
2019-05-19T02:00:08.887Z,70.12
2019-05-19T02:01:08.883Z,70.56
2019-05-19T02:02:08.859Z,70.46
2019-05-19T02:03:08.851Z,69.21
2019-05-19T02:04:08.836Z,69.31
2019-05-19T02:05:08.826Z,69.21
2019-05-19T02:06:08.830Z,68.40
2019-05-19T02:07:08.803Z,68.40
2019-05-19T02:08:08.791Z,67.80
2019-05-19T02:09:08.782Z,68.51
2019-05-19T02:10:08.771Z,68.91
2019-05-19T02:11:08.773Z,67.90
2019-05-19T02:12:08.750Z,68.80
2019-05-19T02:13:08.737Z,68.60
2019-05-19T02:14:08.730Z,68.51
2019-05-19T02:15:08.713Z,69.62
2019-05-19T02:16:08.722Z,69.31
2019-05-19T02:17:08.700Z,70.12
2019-05-19T02:18:08.681Z,68.60
2019-05-19T02:19:08.670Z,69.31
2019-05-19T02:20:08.662Z,67.90
2019-05-19T02:21:08.659Z,68.10
2019-05-19T02:22:08.640Z,68.60
2019-05-19T02:23:08.626Z,67.09
2019-05-19T02:24:08.616Z,66.99
2019-05-19T02:25:08.619Z,66.28
2019-05-19T02:26:08.622Z,67.19
2019-05-19T02:27:08.592Z,66.38
2019-05-19T02:28:08.573Z,66.28
2019-05-19T02:29:08.563Z,67.39
2019-05-19T02:30:08.557Z,66.89
2019-05-19T02:31:08.555Z,67.49
2019-05-19T02:32:08.527Z,69.01
2019-05-19T02:33:08.515Z,70.12
2019-05-19T02:34:08.530Z,70.73
2019-05-19T02:35:08.506Z,70.83
2019-05-19T02:36:08.491Z,70.83
2019-05-19T02:37:08.480Z,70.22
2019-05-19T02:38:08.462Z,69.62
2019-05-19T02:39:08.450Z,68.10
2019-05-19T02:40:08.457Z,68.00
2019-05-19T02:41:08.440Z,66.99
2019-05-19T02:42:08.420Z,66.75
2019-05-19T02:43:08.408Z,66.78
2019-05-19T02:44:08.401Z,66.78
2019-05-19T02:45:08.408Z,67.19
2019-05-19T02:46:08.412Z,66.96
2019-05-19T02:47:08.365Z,67.29
2019-05-19T02:48:08.353Z,67.60
2019-05-19T02:49:08.338Z,68.10
2019-05-19T02:50:08.331Z,68.20
2019-05-19T02:51:08.318Z,68.10
2019-05-19T02:52:08.323Z,67.80
2019-05-19T02:53:08.298Z,68.51
2019-05-19T02:54:08.286Z,68.51
2019-05-19T02:55:08.276Z,69.01
2019-05-19T02:56:08.263Z,68.40
2019-05-19T02:57:08.265Z,68.91
2019-05-19T02:58:08.240Z,69.62
2019-05-19T02:59:08.229Z,69.75
2019-05-19T03:00:08.232Z,70.66
2019-05-19T03:01:08.209Z,70.02
2019-05-19T03:02:08.210Z,69.65
2019-05-19T03:03:08.186Z,69.04
2019-05-19T03:04:08.176Z,69.24
2019-05-19T03:05:08.173Z,68.43
2019-05-19T03:06:08.174Z,68.54
2019-05-19T03:07:08.158Z,69.34
2019-05-19T03:08:08.139Z,68.74
2019-05-19T03:09:08.191Z,68.63
2019-05-19T03:10:08.110Z,68.63
2019-05-19T03:11:08.100Z,67.52
2019-05-19T03:12:08.099Z,68.63
2019-05-19T03:13:08.080Z,68.06
2019-05-19T03:14:08.064Z,68.16
2019-05-19T03:15:08.056Z,68.26
2019-05-19T03:16:08.046Z,68.87
2019-05-19T03:17:08.042Z,69.58
2019-05-19T03:18:08.022Z,69.27
2019-05-19T03:19:08.017Z,69.27
2019-05-19T03:20:08.018Z,69.07
2019-05-19T03:21:11.560Z,68.67
2019-05-19T03:22:07.987Z,68.77
2019-05-19T03:23:07.983Z,67.86
2019-05-19T03:24:07.960Z,68.16
2019-05-19T03:25:07.945Z,68.26
2019-05-19T03:26:07.944Z,67.96
2019-05-19T03:27:07.937Z,68.26
2019-05-19T03:28:07.913Z,67.66
2019-05-19T03:29:07.902Z,68.47
2019-05-19T03:30:07.888Z,67.96
2019-05-19T03:31:07.878Z,68.57
2019-05-19T03:32:12.319Z,68.47
2019-05-19T03:33:08.856Z,68.87
2019-05-19T03:34:07.844Z,69.27
2019-05-19T03:35:07.854Z,68.67
2019-05-19T03:36:07.831Z,69.27
2019-05-19T03:37:07.841Z,69.18
2019-05-19T03:38:07.804Z,68.97
2019-05-19T03:39:07.793Z,68.67
2019-05-19T03:40:07.780Z,68.87
2019-05-19T03:41:07.770Z,68.67
2019-05-19T03:42:10.373Z,68.57
2019-05-19T03:43:07.755Z,68.67
2019-05-19T03:44:07.734Z,68.87
2019-05-19T03:45:07.726Z,68.57
2019-05-19T03:46:07.715Z,68.97
2019-05-19T03:47:07.711Z,67.55
2019-05-19T03:48:07.692Z,68.77
2019-05-19T03:49:07.681Z,69.18
2019-05-19T03:50:07.670Z,69.18
2019-05-19T03:51:07.659Z,69.38
2019-05-19T03:52:07.682Z,69.07
2019-05-19T03:53:07.642Z,70.39
2019-05-19T03:54:07.627Z,69.89
2019-05-19T03:55:07.616Z,69.38
2019-05-19T03:56:07.607Z,68.47
2019-05-19T03:57:07.593Z,69.68
2019-05-19T03:58:07.594Z,69.78
2019-05-19T03:59:07.572Z,70.18
2019-05-19T04:00:07.562Z,69.48
2019-05-19T04:01:07.547Z,68.33
2019-05-19T04:02:07.541Z,68.67
2019-05-19T04:03:07.539Z,69.38
2019-05-19T04:04:07.517Z,68.87
2019-05-19T04:05:07.506Z,67.96
2019-05-19T04:06:07.501Z,68.06
2019-05-19T04:07:07.483Z,67.12
2019-05-19T04:08:07.486Z,66.82
2019-05-19T04:09:07.475Z,67.32
2019-05-19T04:10:07.452Z,68.13
2019-05-19T04:11:07.438Z,66.99
2019-05-19T04:12:07.438Z,66.61
2019-05-19T04:13:07.433Z,66.38
2019-05-19T04:14:07.408Z,66.28
2019-05-19T04:15:07.409Z,66.18
2019-05-19T04:16:07.389Z,67.29
2019-05-19T04:17:07.372Z,68.91
2019-05-19T04:18:07.375Z,67.60
2019-05-19T04:19:07.351Z,67.29
2019-05-19T04:20:07.341Z,66.08
2019-05-19T04:21:07.334Z,66.69
2019-05-19T04:22:07.317Z,66.48
2019-05-19T04:23:07.313Z,66.38
2019-05-19T04:24:07.306Z,66.18
2019-05-19T04:25:07.285Z,66.38
2019-05-19T04:26:07.340Z,66.18
2019-05-19T04:27:07.262Z,65.88
2019-05-19T04:28:07.266Z,65.67
2019-05-19T04:29:07.244Z,66.28
2019-05-19T04:30:07.235Z,65.64
2019-05-19T04:31:07.222Z,64.94
2019-05-19T04:32:07.205Z,65.75
2019-05-19T04:33:07.212Z,64.87
2019-05-19T04:34:07.189Z,64.64
2019-05-19T04:35:07.177Z,64.67
2019-05-19T04:36:07.162Z,64.43
2019-05-19T04:37:07.152Z,64.23
2019-05-19T04:38:07.150Z,64.43
2019-05-19T04:39:07.135Z,64.64
2019-05-19T04:40:07.119Z,63.93
2019-05-19T04:41:07.109Z,64.33
2019-05-19T04:42:07.099Z,63.82
2019-05-19T04:43:07.095Z,64.73
2019-05-19T04:44:07.076Z,64.10
2019-05-19T04:45:07.064Z,63.29
2019-05-19T04:46:07.062Z,63.29
2019-05-19T04:47:07.044Z,63.59
2019-05-19T04:48:09.643Z,63.39
2019-05-19T04:49:07.022Z,63.29
2019-05-19T04:50:07.044Z,63.39
2019-05-19T04:51:06.999Z,63.59
2019-05-19T04:52:07.542Z,63.29
2019-05-19T04:53:06.991Z,63.39
2019-05-19T04:54:06.975Z,62.99
2019-05-19T04:55:06.955Z,63.29
2019-05-19T04:56:06.945Z,63.29
2019-05-19T04:57:06.939Z,62.99
2019-05-19T04:58:06.935Z,63.29
2019-05-19T04:59:06.909Z,62.68
2019-05-19T05:00:06.899Z,62.65
2019-05-19T05:01:06.889Z,62.76
2019-05-19T05:02:06.896Z,62.76
2019-05-19T05:03:06.877Z,62.65
2019-05-19T05:04:06.856Z,62.55
2019-05-19T05:05:06.848Z,62.68
2019-05-19T05:06:06.834Z,62.55
2019-05-19T05:07:06.821Z,62.55
2019-05-19T05:08:06.843Z,62.55
2019-05-19T05:09:06.804Z,62.22
2019-05-19T05:10:06.791Z,62.52
2019-05-19T05:11:06.784Z,62.32
2019-05-19T05:12:06.773Z,62.43
2019-05-19T05:13:06.759Z,62.43
2019-05-19T05:14:15.377Z,62.63
2019-05-19T05:15:06.744Z,62.02
2019-05-19T05:16:06.724Z,62.29
2019-05-19T05:17:06.711Z,61.79
2019-05-19T05:18:06.701Z,61.59
2019-05-19T05:19:06.697Z,61.39
2019-05-19T05:20:06.682Z,61.29
2019-05-19T05:21:06.694Z,60.78
2019-05-19T05:22:21.006Z,60.96
2019-05-19T05:23:07.647Z,60.75
2019-05-19T05:24:06.649Z,61.16
2019-05-19T05:25:06.628Z,61.25
2019-05-19T05:26:06.613Z,60.96
2019-05-19T05:27:06.603Z,61.05
2019-05-19T05:28:06.594Z,61.05
2019-05-19T05:29:06.594Z,61.05
2019-05-19T05:30:06.569Z,61.05
2019-05-19T05:31:06.560Z,61.16
2019-05-19T05:32:06.559Z,61.46
2019-05-19T05:33:06.537Z,61.16
2019-05-19T05:34:06.540Z,60.85
2019-05-19T05:35:06.518Z,60.75
2019-05-19T05:36:06.506Z,60.05
2019-05-19T05:37:06.493Z,60.75
2019-05-19T05:38:06.484Z,60.35
2019-05-19T05:39:06.487Z,60.45
2019-05-19T05:40:06.475Z,60.05
2019-05-19T05:41:06.449Z,60.63
2019-05-19T05:42:06.440Z,60.12
2019-05-19T05:43:06.425Z,60.12
2019-05-19T05:44:06.428Z,60.02
2019-05-19T05:45:06.410Z,60.63
2019-05-19T05:46:06.394Z,60.12
2019-05-19T05:47:06.387Z,60.02
2019-05-19T05:48:06.372Z,59.92
2019-05-19T05:49:06.375Z,59.92
2019-05-19T05:50:06.348Z,59.01
2019-05-19T05:51:06.341Z,59.82
2019-05-19T05:52:06.332Z,59.31
2019-05-19T05:53:06.318Z,59.52
2019-05-19T05:54:06.317Z,59.11
2019-05-19T05:55:06.297Z,59.52
2019-05-19T05:56:06.284Z,59.59
2019-05-19T05:57:06.276Z,59.39
2019-05-19T05:58:06.267Z,58.68
2019-05-19T05:59:06.281Z,58.75
2019-05-19T06:00:06.242Z,58.68
2019-05-19T06:01:06.241Z,58.45
2019-05-19T06:02:06.220Z,58.45
2019-05-19T06:03:06.213Z,58.25
2019-05-19T06:04:06.205Z,58.45
2019-05-19T06:05:06.194Z,58.65
2019-05-19T06:06:06.185Z,58.25
2019-05-19T06:07:06.164Z,58.25
2019-05-19T06:08:06.153Z,58.83
2019-05-19T06:09:06.153Z,57.72
2019-05-19T06:10:06.134Z,58.02
2019-05-19T06:11:06.121Z,57.92
2019-05-19T06:12:06.112Z,58.00
2019-05-19T06:13:06.099Z,56.99
2019-05-19T06:14:06.105Z,56.79
2019-05-19T06:15:06.088Z,56.79
2019-05-19T06:16:06.066Z,56.89
2019-05-19T06:17:06.060Z,57.67
2019-05-19T06:18:06.065Z,57.77
2019-05-19T06:19:06.070Z,56.76
2019-05-19T06:20:06.045Z,56.46
2019-05-19T06:21:06.010Z,57.24
2019-05-19T06:22:05.998Z,57.24
2019-05-19T06:23:05.992Z,56.91
2019-05-19T06:24:06.012Z,56.74
2019-05-19T06:25:05.980Z,56.10
2019-05-19T06:26:05.958Z,56.61
2019-05-19T06:27:05.943Z,56.81
2019-05-19T06:28:05.937Z,56.51
2019-05-19T06:29:05.928Z,56.28
2019-05-19T06:30:08.624Z,55.98
2019-05-19T06:31:05.898Z,55.47
2019-05-19T06:32:05.892Z,55.18
2019-05-19T06:33:05.881Z,55.55
2019-05-19T06:34:05.871Z,55.55
2019-05-19T06:35:05.868Z,55.15
2019-05-19T06:36:05.848Z,54.82
2019-05-19T06:37:05.837Z,55.22
2019-05-19T06:38:05.825Z,54.72
2019-05-19T06:39:05.822Z,54.39
2019-05-19T06:40:05.818Z,54.52
2019-05-19T06:41:05.797Z,54.62
2019-05-19T06:42:05.781Z,54.52
2019-05-19T06:43:05.770Z,54.60
2019-05-19T06:44:05.763Z,54.50
2019-05-19T06:45:05.755Z,53.00
2019-05-19T06:46:05.769Z,53.50
2019-05-19T06:47:05.733Z,53.30
2019-05-19T06:48:05.714Z,53.09
2019-05-19T06:49:05.703Z,53.09
2019-05-19T06:50:05.703Z,53.00
2019-05-19T06:51:05.683Z,53.57
2019-05-19T06:52:05.671Z,52.67
2019-05-19T06:53:14.158Z,53.07
2019-05-19T06:54:06.646Z,53.07
2019-05-19T06:55:05.648Z,52.37
2019-05-19T06:56:05.627Z,52.87
2019-05-19T06:57:05.615Z,52.67
2019-05-19T06:58:05.609Z,52.55
2019-05-19T06:59:05.614Z,52.14
2019-05-19T07:00:05.593Z,51.25
2019-05-19T07:01:05.573Z,52.32
2019-05-19T07:02:05.560Z,52.74
2019-05-19T07:03:05.547Z,51.82
2019-05-19T07:04:05.543Z,52.02
2019-05-19T07:05:05.537Z,51.92
2019-05-19T07:06:05.518Z,51.92
2019-05-19T07:07:05.546Z,51.89
2019-05-19T07:08:05.495Z,51.69
2019-05-19T07:09:05.484Z,51.79
2019-05-19T07:10:05.486Z,51.39
2019-05-19T07:11:05.458Z,50.67
2019-05-19T07:12:05.457Z,50.39
2019-05-19T07:13:05.436Z,50.87
2019-05-19T07:14:05.428Z,51.37
2019-05-19T07:15:05.430Z,49.97
2019-05-19T07:16:05.417Z,50.37
2019-05-19T07:17:05.394Z,50.17
2019-05-19T07:18:05.388Z,49.35
2019-05-19T07:19:05.433Z,49.55
2019-05-19T07:20:05.395Z,49.55
2019-05-19T07:21:05.353Z,49.85
2019-05-19T07:22:05.342Z,49.42
2019-05-19T07:23:05.329Z,49.32
2019-05-19T07:24:05.319Z,49.12
2019-05-19T07:25:05.322Z,49.52
2019-05-19T07:26:05.390Z,49.50
2019-05-19T07:27:05.319Z,48.80
2019-05-19T07:28:05.327Z,48.40
2019-05-19T07:29:05.268Z,48.20
2019-05-19T07:30:29.290Z,48.60
2019-05-19T07:31:29.287Z,48.38
2019-05-19T07:32:29.268Z,47.98
2019-05-19T07:33:29.252Z,48.08
2019-05-19T07:34:29.240Z,48.88
2019-05-19T07:35:29.237Z,47.28
2019-05-19T07:36:29.216Z,46.38
2019-05-19T07:37:29.210Z,47.36
2019-05-19T07:38:29.196Z,46.98
2019-05-19T07:39:29.184Z,46.98
2019-05-19T07:40:29.186Z,46.36
2019-05-19T07:41:29.169Z,47.56
2019-05-19T07:42:29.181Z,47.66
2019-05-19T07:43:29.141Z,46.86
2019-05-19T07:44:29.130Z,46.46
2019-05-19T07:45:29.131Z,47.33
2019-05-19T07:46:29.112Z,46.84
2019-05-19T07:47:29.100Z,46.24
2019-05-19T07:48:29.086Z,46.34
2019-05-19T07:49:29.073Z,46.14
2019-05-19T07:50:29.078Z,46.44
2019-05-19T07:51:29.053Z,46.42
2019-05-19T07:52:29.055Z,46.01
2019-05-19T07:53:42.221Z,45.22
2019-05-19T07:54:30.020Z,45.72
2019-05-19T07:55:29.018Z,45.82
2019-05-19T07:56:29.000Z,44.12
2019-05-19T07:57:28.994Z,43.82
2019-05-19T07:58:28.981Z,44.53
2019-05-19T07:59:28.969Z,45.02
2019-05-19T08:00:29.026Z,44.80
2019-05-19T08:01:28.947Z,45.00
2019-05-19T08:02:28.933Z,43.80
2019-05-19T08:03:28.923Z,45.50
2019-05-19T08:04:28.932Z,44.31
2019-05-19T08:05:28.945Z,43.90
2019-05-19T08:06:28.898Z,43.90
2019-05-19T08:07:28.884Z,43.90
2019-05-19T08:08:28.871Z,44.50
2019-05-19T08:09:28.891Z,44.10
2019-05-19T08:10:28.885Z,44.20
2019-05-19T08:11:28.868Z,44.08
2019-05-19T08:12:28.835Z,43.11
2019-05-19T08:13:28.820Z,43.08
2019-05-19T08:14:28.809Z,43.98
2019-05-19T08:15:28.794Z,44.28
2019-05-19T08:16:28.794Z,44.08
2019-05-19T08:17:28.783Z,42.89
2019-05-19T08:18:28.760Z,43.88
2019-05-19T08:19:28.794Z,42.99
2019-05-19T08:20:28.739Z,42.97
2019-05-19T08:21:28.747Z,43.98
2019-05-19T08:22:28.718Z,42.47
2019-05-19T08:23:28.710Z,41.87
2019-05-19T08:24:28.696Z,42.65
2019-05-19T08:25:28.684Z,41.58
2019-05-19T08:26:28.684Z,43.15
2019-05-19T08:27:28.666Z,43.05
2019-05-19T08:28:28.655Z,43.35
2019-05-19T08:29:28.644Z,43.94
2019-05-19T08:30:28.633Z,41.46
2019-05-19T08:31:28.644Z,41.85
2019-05-19T08:32:28.609Z,41.06
2019-05-19T08:33:28.604Z,41.85
2019-05-19T08:34:28.589Z,42.15
2019-05-19T08:35:28.582Z,41.55
2019-05-19T08:36:28.574Z,42.05
2019-05-19T08:37:28.557Z,42.45
2019-05-19T08:38:28.551Z,41.36
2019-05-19T08:39:28.531Z,41.46
2019-05-19T08:40:28.546Z,41.95
2019-05-19T08:41:28.521Z,41.95
2019-05-19T08:42:28.500Z,41.46
2019-05-19T08:43:28.491Z,41.46
2019-05-19T08:44:28.479Z,41.06
2019-05-19T08:45:28.497Z,41.36
2019-05-19T08:46:28.467Z,40.86
2019-05-19T08:47:28.443Z,40.16
2019-05-19T08:48:28.436Z,41.46
2019-05-19T08:49:28.450Z,41.85
2019-05-19T08:50:28.412Z,41.06
2019-05-19T08:51:28.412Z,41.85
2019-05-19T08:52:28.401Z,41.16
2019-05-19T08:53:28.380Z,41.47
2019-05-19T08:54:28.370Z,40.86
2019-05-19T08:55:28.360Z,41.36
2019-05-19T08:56:28.358Z,41.36
2019-05-19T08:57:28.340Z,41.16
2019-05-19T08:58:28.328Z,41.25
2019-05-19T08:59:28.317Z,41.95
2019-05-19T09:00:28.329Z,42.25
2019-05-19T09:01:28.305Z,42.43
2019-05-19T09:02:28.284Z,41.93
2019-05-19T09:03:28.273Z,40.84
2019-05-19T09:04:28.273Z,41.34
2019-05-19T09:05:28.250Z,41.24
2019-05-19T09:06:28.251Z,41.14
2019-05-19T09:07:28.241Z,41.24
2019-05-19T09:08:28.222Z,40.03
2019-05-19T09:09:28.224Z,39.84
2019-05-19T09:10:28.221Z,39.54
2019-05-19T09:11:28.229Z,41.12
2019-05-19T09:12:28.179Z,40.92
2019-05-19T09:13:28.165Z,41.12
2019-05-19T09:14:28.160Z,41.02
2019-05-19T09:15:28.149Z,40.62
2019-05-19T09:16:28.138Z,39.63
2019-05-19T09:17:28.129Z,40.92
2019-05-19T09:18:28.113Z,40.92
2019-05-19T09:19:28.099Z,40.52
2019-05-19T09:20:28.092Z,40.60
2019-05-19T09:21:28.100Z,40.12
2019-05-19T09:22:28.077Z,41.12
2019-05-19T09:23:28.056Z,40.50
2019-05-19T09:24:30.447Z,39.53
2019-05-19T09:25:28.037Z,39.73
2019-05-19T09:26:28.031Z,40.52
2019-05-19T09:27:28.104Z,41.09
2019-05-19T09:28:28.003Z,41.79
2019-05-19T09:29:27.989Z,41.39
2019-05-19T09:30:27.979Z,41.39
2019-05-19T09:31:27.973Z,40.70
2019-05-19T09:32:27.971Z,40.38
2019-05-19T09:33:27.947Z,40.41
2019-05-19T09:34:27.936Z,39.59
2019-05-19T09:35:27.926Z,40.98
2019-05-19T09:36:27.913Z,41.28
2019-05-19T09:37:27.913Z,41.38
2019-05-19T09:38:27.897Z,40.88
2019-05-19T09:39:27.894Z,39.79
2019-05-19T09:40:27.873Z,40.38
2019-05-19T09:41:27.868Z,41.26
2019-05-19T09:42:27.862Z,41.17
2019-05-19T09:43:27.838Z,40.88
2019-05-19T09:44:27.829Z,39.59
2019-05-19T09:45:27.834Z,39.59
2019-05-19T09:46:27.813Z,40.36
2019-05-19T09:47:27.815Z,40.19
2019-05-19T09:48:27.785Z,40.68
2019-05-19T09:49:27.777Z,41.66
2019-05-19T09:50:27.766Z,40.66
2019-05-19T09:51:27.753Z,38.38
2019-05-19T09:52:27.752Z,39.87
2019-05-19T09:53:27.735Z,39.57
2019-05-19T09:54:27.722Z,39.57
2019-05-19T09:55:27.711Z,37.59
2019-05-19T09:56:27.706Z,38.66
2019-05-19T09:57:27.701Z,37.79
2019-05-19T09:58:27.679Z,39.25
2019-05-19T09:59:27.666Z,40.05
2019-05-19T10:00:27.657Z,38.46
2019-05-19T10:01:27.646Z,38.56
2019-05-19T10:02:27.647Z,39.45
2019-05-19T10:03:27.625Z,40.64
2019-05-19T10:04:27.612Z,40.64
2019-05-19T10:05:27.668Z,39.65
2019-05-19T10:06:27.594Z,40.34
2019-05-19T10:07:27.586Z,39.55
2019-05-19T10:08:27.568Z,39.83
2019-05-19T10:09:27.558Z,41.22
2019-05-19T10:10:27.550Z,40.23
2019-05-19T10:11:27.545Z,40.42
2019-05-19T10:12:27.537Z,39.63
2019-05-19T10:13:27.513Z,38.54
2019-05-19T10:14:27.508Z,38.64
2019-05-19T10:15:27.491Z,38.05
2019-05-19T10:16:27.483Z,38.74
2019-05-19T10:17:27.486Z,37.95
2019-05-19T10:18:27.459Z,38.72
2019-05-19T10:19:27.453Z,38.44
2019-05-19T10:20:27.439Z,38.72
2019-05-19T10:21:27.429Z,38.72
2019-05-19T10:22:27.453Z,38.42
2019-05-19T10:23:27.412Z,38.62
2019-05-19T10:24:27.396Z,38.32
2019-05-19T10:25:27.389Z,37.73
2019-05-19T10:26:27.374Z,38.72
2019-05-19T10:27:27.427Z,36.94
2019-05-19T10:28:27.351Z,38.84
2019-05-19T10:29:27.457Z,39.42
2019-05-19T10:30:27.337Z,38.82
2019-05-19T10:31:27.324Z,38.82
2019-05-19T10:32:27.311Z,40.11
2019-05-19T10:33:27.311Z,38.82
2019-05-19T10:34:27.290Z,39.51
2019-05-19T10:35:27.280Z,39.42
2019-05-19T10:36:27.267Z,39.71
2019-05-19T10:37:27.259Z,41.10
2019-05-19T10:38:27.257Z,40.19
2019-05-19T10:39:27.242Z,39.59
2019-05-19T10:40:27.230Z,40.58
2019-05-19T10:41:27.215Z,40.78
2019-05-19T10:42:27.227Z,39.40
2019-05-19T10:43:27.203Z,40.37
2019-05-19T10:44:27.183Z,39.18
2019-05-19T10:45:27.173Z,37.49
2019-05-19T10:46:27.164Z,38.49
2019-05-19T10:47:27.149Z,38.68
2019-05-19T10:48:27.148Z,38.39
2019-05-19T10:49:27.128Z,39.48
2019-05-19T10:50:27.116Z,38.68
2019-05-19T10:51:27.110Z,38.98
2019-05-19T10:52:27.114Z,36.88
2019-05-19T10:53:27.101Z,36.49
2019-05-19T10:54:27.077Z,36.88
2019-05-19T10:55:36.081Z,37.68
2019-05-19T10:56:28.050Z,37.48
2019-05-19T10:57:27.041Z,37.98
2019-05-19T10:58:27.040Z,37.28
2019-05-19T10:59:27.022Z,37.28
2019-05-19T11:00:27.013Z,37.38
2019-05-19T11:01:27.000Z,36.49
2019-05-19T11:02:26.990Z,37.38
2019-05-19T11:03:26.991Z,36.98
2019-05-19T11:04:26.966Z,36.10
2019-05-19T11:05:26.958Z,36.19
2019-05-19T11:06:26.956Z,37.58
2019-05-19T11:07:26.939Z,36.39
2019-05-19T11:08:26.944Z,36.69
2019-05-19T11:09:26.914Z,37.38
2019-05-19T11:10:26.906Z,36.19
2019-05-19T11:11:26.894Z,36.19
2019-05-19T11:12:26.882Z,36.90
2019-05-19T11:13:26.880Z,36.71
2019-05-19T11:14:26.861Z,36.71
2019-05-19T11:15:26.853Z,36.80
2019-05-19T11:16:26.841Z,36.90
2019-05-19T11:17:26.829Z,36.72
2019-05-19T11:18:26.833Z,37.40
2019-05-19T11:19:26.806Z,37.81
2019-05-19T11:20:26.800Z,37.51
2019-05-19T11:21:26.785Z,37.40
2019-05-19T11:22:26.773Z,37.71
2019-05-19T11:23:26.774Z,37.62
2019-05-19T11:24:26.755Z,37.49
2019-05-19T11:25:33.944Z,37.51
2019-05-19T11:26:27.731Z,37.81
2019-05-19T11:27:26.717Z,38.51
2019-05-19T11:28:26.722Z,37.60
2019-05-19T11:29:26.701Z,37.28
2019-05-19T11:30:26.693Z,36.59
2019-05-19T11:31:26.679Z,36.98
2019-05-19T11:32:26.670Z,36.47
2019-05-19T11:33:26.671Z,37.48
2019-05-19T11:34:26.648Z,37.28
2019-05-19T11:35:26.639Z,36.79
2019-05-19T11:36:26.625Z,36.59
2019-05-19T11:37:26.619Z,37.87
2019-05-19T11:38:26.619Z,36.29
2019-05-19T11:39:26.598Z,35.40
2019-05-19T11:40:26.593Z,35.30
2019-05-19T11:41:26.573Z,36.49
2019-05-19T11:42:26.560Z,36.39
2019-05-19T11:43:26.579Z,36.49
2019-05-19T11:44:26.537Z,36.59
2019-05-19T11:45:26.525Z,36.49
2019-05-19T11:46:26.522Z,36.10
2019-05-19T11:47:26.505Z,36.29
2019-05-19T11:48:26.498Z,35.28
2019-05-19T11:49:26.496Z,34.20
2019-05-19T11:50:26.473Z,34.88
2019-05-19T11:51:26.463Z,34.56
2019-05-19T11:52:26.455Z,33.87
2019-05-19T11:53:26.460Z,34.74
2019-05-19T11:54:26.441Z,34.33
2019-05-19T11:55:26.421Z,34.13
2019-05-19T11:56:26.416Z,34.15
2019-05-19T11:57:26.397Z,34.36
2019-05-19T11:58:26.388Z,35.45
2019-05-19T11:59:26.395Z,34.76
2019-05-19T12:00:26.370Z,34.08
2019-05-19T12:01:26.406Z,35.37
2019-05-19T12:02:26.347Z,35.28
2019-05-19T12:03:26.339Z,35.38
2019-05-19T12:04:26.337Z,35.19
2019-05-19T12:05:26.327Z,35.28
2019-05-19T12:06:38.733Z,35.27
2019-05-19T12:07:27.293Z,36.14
2019-05-19T12:08:26.281Z,35.64
2019-05-19T12:09:26.282Z,34.15
2019-05-19T12:10:26.261Z,34.55
2019-05-19T12:11:26.250Z,34.13
2019-05-19T12:12:26.237Z,33.95
2019-05-19T12:13:26.229Z,33.37
2019-05-19T12:14:26.226Z,33.85
2019-05-19T12:15:26.208Z,34.33
2019-05-19T12:16:26.201Z,34.05
2019-05-19T12:17:26.185Z,33.94
2019-05-19T12:18:26.184Z,33.64
2019-05-19T12:19:26.174Z,35.53
2019-05-19T12:20:26.157Z,34.36
2019-05-19T12:21:26.147Z,34.06
2019-05-19T12:22:26.128Z,33.67
2019-05-19T12:23:26.123Z,34.36
2019-05-19T12:24:26.131Z,34.58
2019-05-19T12:25:26.100Z,35.07
2019-05-19T12:26:26.090Z,35.07
2019-05-19T12:27:26.077Z,34.18
2019-05-19T12:28:26.068Z,34.58
2019-05-19T12:29:26.067Z,35.38
2019-05-19T12:30:26.059Z,35.37
2019-05-19T12:31:26.036Z,35.76
2019-05-19T12:32:26.023Z,34.79
2019-05-19T12:33:26.015Z,34.59
2019-05-19T12:34:26.015Z,35.38
2019-05-19T12:35:25.991Z,36.37
2019-05-19T12:36:25.983Z,36.08
2019-05-19T12:37:26.195Z,34.89
2019-05-19T12:38:25.968Z,35.68
2019-05-19T12:39:25.963Z,36.37
2019-05-19T12:40:25.940Z,36.47
2019-05-19T12:41:25.929Z,36.27
2019-05-19T12:42:25.914Z,36.37
2019-05-19T12:43:25.925Z,35.68
2019-05-19T12:44:25.902Z,34.79
2019-05-19T12:45:25.889Z,35.68
2019-05-19T12:46:25.872Z,36.47
2019-05-19T12:47:25.864Z,35.28
2019-05-19T12:48:25.851Z,35.78
2019-05-19T12:49:25.850Z,36.37
2019-05-19T12:50:25.835Z,36.37
2019-05-19T12:51:26.968Z,35.88
2019-05-19T12:52:25.807Z,35.98